Time;durP1;ratioP1;P1;durP2;ratioP2;P2;SDS_P1;SDS_P2;PMS_P1;PMS_P2;Temp;Humidity;BMP_temperature;BMP_pressure;BME280_temperature;BME280_humidity;BME280_pressure;Samples;Min_cycle;Max_cycle;Signal;HPM_P1;HPM_P2
2023/10/14 00:00:47;;;;;;;8.90;3.65;;;;;;;5.91;nan;99181.84;4917413;29;20047;-71
2023/10/14 00:03:27;;;;;;;10.02;3.90;;;;;;;5.96;nan;99175.38;4918124;28;20055;-74
2023/10/14 00:06:00;;;;;;;9.32;3.75;;;;;;;5.89;nan;99178.44;4936785;28;20046;-71
2023/10/14 00:08:27;;;;;;;10.05;3.92;;;;;;;5.90;nan;99175.72;4922870;28;20049;-69
2023/10/14 00:10:53;;;;;;;14.07;4.13;;;;;;;5.84;nan;99203.38;4916399;28;20047;-69
2023/10/14 00:13:18;;;;;;;6.20;3.67;;;;;;;5.83;nan;99163.78;4916591;28;20047;-69
2023/10/14 00:15:45;;;;;;;5.43;3.20;;;;;;;5.85;nan;99175.13;4916788;29;20046;-71
2023/10/14 00:18:10;;;;;;;5.07;3.42;;;;;;;5.89;nan;99173.16;4900539;29;20059;-69
2023/10/14 00:20:36;;;;;;;9.38;3.50;;;;;;;5.95;nan;99171.00;4897475;29;20048;-71
2023/10/14 00:23:02;;;;;;;9.25;3.58;;;;;;;5.98;nan;99167.34;4913467;28;20057;-70
2023/10/14 00:25:27;;;;;;;24.23;5.70;;;;;;;5.99;nan;99159.28;4935595;28;20505;-72
2023/10/14 00:27:52;;;;;;;8.93;3.72;;;;;;;6.00;nan;99168.94;4937099;28;20077;-71
2023/10/14 00:30:20;;;;;;;9.82;3.50;;;;;;;6.02;nan;99185.56;4935630;28;20552;-73
2023/10/14 00:32:45;;;;;;;8.13;3.65;;;;;;;6.05;nan;99121.03;4935906;28;20107;-67
2023/10/14 00:35:18;;;;;;;8.15;3.25;;;;;;;6.04;nan;99146.63;4936668;28;20038;-70
2023/10/14 00:37:43;;;;;;;10.15;3.95;;;;;;;6.09;nan;99143.72;4936552;28;20066;-72
2023/10/14 00:40:21;;;;;;;8.65;3.75;;;;;;;6.11;nan;99153.25;4939894;28;20038;-69
2023/10/14 00:42:46;;;;;;;8.02;4.22;;;;;;;6.13;nan;99146.06;4944001;28;20046;-70
2023/10/14 00:45:12;;;;;;;7.55;3.67;;;;;;;6.12;nan;99141.72;4940734;28;20049;-69
2023/10/14 00:47:40;;;;;;;7.88;4.03;;;;;;;6.13;nan;99135.50;4939049;28;20046;-70
2023/10/14 00:50:26;;;;;;;12.35;4.50;;;;;;;6.15;nan;99143.34;4938403;28;20053;-66
2023/10/14 00:52:57;;;;;;;8.63;3.55;;;;;;;6.16;nan;99155.63;4938210;28;20055;-70
2023/10/14 00:55:45;;;;;;;7.57;4.07;;;;;;;6.16;nan;99145.88;4936690;28;20058;-68
2023/10/14 00:58:20;;;;;;;13.00;3.83;;;;;;;6.18;nan;99133.41;4935692;28;20054;-73
2023/10/14 01:00:57;;;;;;;10.90;4.30;;;;;;;6.21;nan;99129.72;4922386;28;20406;-67
2023/10/14 01:03:25;;;;;;;5.93;3.83;;;;;;;6.18;nan;99138.72;4935211;28;20047;-70
2023/10/14 01:05:54;;;;;;;12.38;4.20;;;;;;;6.13;nan;99134.63;4936973;28;20507;-70
2023/10/14 01:08:22;;;;;;;8.43;4.10;;;;;;;6.07;nan;99129.72;4934785;28;20552;-67
2023/10/14 01:10:49;;;;;;;9.85;3.75;;;;;;;6.16;nan;99124.72;4935423;28;20046;-71
2023/10/14 01:13:17;;;;;;;8.15;3.97;;;;;;;6.16;nan;99119.44;4935373;28;20055;-72
2023/10/14 01:15:48;;;;;;;15.10;4.60;;;;;;;6.11;nan;99131.22;4930119;28;20513;-71
2023/10/14 01:18:14;;;;;;;11.35;4.30;;;;;;;6.04;nan;99124.63;4921810;28;20065;-71
2023/10/14 01:20:44;;;;;;;14.63;4.22;;;;;;;6.09;nan;99128.69;4921695;29;20046;-72
2023/10/14 01:23:14;;;;;;;18.83;4.25;;;;;;;5.96;nan;99143.63;4904028;29;20050;-75
2023/10/14 01:25:47;;;;;;;12.23;3.55;;;;;;;5.96;nan;99117.16;4920893;29;20055;-73
2023/10/14 01:28:20;;;;;;;8.15;3.85;;;;;;;5.98;nan;99119.72;4938243;28;20050;-72
2023/10/14 01:33:56;;;;;;;7.28;2.85;;;;;;;6.06;nan;99118.28;4937274;28;20106;-77
2023/10/14 01:36:32;;;;;;;10.23;3.92;;;;;;;6.05;nan;99126.31;4956898;28;20051;-74
2023/10/14 01:39:00;;;;;;;6.07;3.88;;;;;;;6.08;nan;99121.69;4940418;28;20405;-73
2023/10/14 01:41:30;;;;;;;7.80;3.42;;;;;;;6.00;nan;99113.34;4934138;28;20058;-66
2023/10/14 01:43:57;;;;;;;8.50;3.72;;;;;;;6.07;nan;99097.97;4918198;28;20509;-66
2023/10/14 01:46:23;;;;;;;7.13;3.00;;;;;;;6.06;nan;99099.78;4937549;28;20065;-69
2023/10/14 01:48:52;;;;;;;14.43;4.13;;;;;;;5.97;nan;99103.00;4923004;28;20050;-75
2023/10/14 01:51:19;;;;;;;5.32;3.40;;;;;;;6.01;nan;99111.56;4923025;28;20054;-70
2023/10/14 01:53:44;;;;;;;7.68;3.40;;;;;;;5.97;nan;99108.28;4930471;28;20044;-71
2023/10/14 01:56:09;;;;;;;7.63;3.15;;;;;;;5.98;nan;99109.13;4919748;28;20046;-71
2023/10/14 01:58:36;;;;;;;8.82;3.55;;;;;;;5.99;nan;99110.81;4937319;28;20405;-71
2023/10/14 02:03:47;;;;;;;9.52;3.38;;;;;;;6.05;nan;99115.75;4921470;28;20058;-68
2023/10/14 02:06:18;;;;;;;9.02;3.58;;;;;;;6.00;nan;99107.22;4922000;28;20057;-69
2023/10/14 02:08:46;;;;;;;10.95;3.60;;;;;;;5.96;nan;99116.31;4922917;28;20047;-76
2023/10/14 02:11:11;;;;;;;8.23;3.78;;;;;;;5.94;nan;99118.19;4930270;28;20051;-76
2023/10/14 02:13:37;;;;;;;7.47;3.60;;;;;;;5.94;nan;99124.34;4938835;28;20046;-74
2023/10/14 02:16:09;;;;;;;10.60;4.10;;;;;;;6.00;nan;99112.50;4904108;28;20426;-76
2023/10/14 02:18:39;;;;;;;6.28;2.70;;;;;;;6.03;nan;99113.19;4915793;29;20043;-75
2023/10/14 02:21:06;;;;;;;6.55;3.65;;;;;;;5.98;nan;99099.38;4909054;29;20043;-76
2023/10/14 02:23:49;;;;;;;8.38;3.85;;;;;;;5.96;nan;99111.88;4916057;29;20054;-73
2023/10/14 02:26:30;;;;;;;10.02;3.67;;;;;;;5.95;nan;99094.28;4908967;28;20493;-75
2023/10/14 02:28:57;;;;;;;5.93;2.90;;;;;;;5.95;nan;99085.50;4917437;28;20051;-72
2023/10/14 02:31:35;;;;;;;8.18;4.05;;;;;;;5.93;nan;99079.44;4920091;28;20062;-74
2023/10/14 02:34:08;;;;;;;15.40;4.03;;;;;;;5.97;nan;99076.53;4906724;28;20039;-73
2023/10/14 02:36:49;;;;;;;10.57;3.70;;;;;;;6.04;nan;99088.44;4917742;28;20054;-76
2023/10/14 02:39:15;;;;;;;8.80;4.53;;;;;;;6.08;nan;99058.19;4933292;28;20374;-73
2023/10/14 02:41:58;;;;;;;9.70;3.92;;;;;;;6.11;nan;99063.28;4934633;28;20061;-74
2023/10/14 02:44:30;;;;;;;6.70;3.35;;;;;;;6.12;nan;99075.56;4934262;28;20469;-73
2023/10/14 02:47:01;;;;;;;5.53;3.40;;;;;;;6.18;nan;99050.53;4905704;28;20050;-73
2023/10/14 02:49:34;;;;;;;8.23;3.47;;;;;;;6.11;nan;99052.69;4933929;28;20422;-72
2023/10/14 02:52:03;;;;;;;5.15;3.25;;;;;;;6.13;nan;99061.38;4902292;29;20421;-71
2023/10/14 02:54:33;;;;;;;10.52;4.25;;;;;;;6.15;nan;99042.78;4913340;28;20058;-68
2023/10/14 02:56:59;;;;;;;10.10;3.20;;;;;;;6.13;nan;99060.53;4931104;28;20501;-68
2023/10/14 02:59:43;;;;;;;9.30;3.83;;;;;;;6.22;nan;99038.78;4952313;28;20050;-68
2023/10/14 03:12:39;;;;;;;7.90;3.15;;;;;;;6.15;nan;99033.03;4929894;28;20402;-71
2023/10/14 03:15:18;;;;;;;9.85;4.18;;;;;;;6.10;nan;99021.03;4934587;28;20047;-68
2023/10/14 03:17:51;;;;;;;6.38;3.13;;;;;;;6.07;nan;99034.47;4937605;28;20430;-67
2023/10/14 03:24:27;;;;;;;12.73;4.32;;;;;;;6.04;85.38;99014.34;5043939;27;20516;-71
2023/10/14 03:27:00;;;;;;;8.82;3.58;;;;;;;6.13;85.74;98970.56;5089644;28;20043;-73
2023/10/14 03:29:28;;;;;;;7.80;3.58;;;;;;;6.17;85.76;98983.50;5072812;28;20501;-74
2023/10/14 03:31:55;;;;;;;10.15;3.58;;;;;;;6.19;85.30;98976.31;5072383;28;20047;-75
2023/10/14 03:34:21;;;;;;;14.45;4.45;;;;;;;6.23;84.23;98981.41;4991198;27;20052;-75
2023/10/14 03:36:50;;;;;;;7.10;3.53;;;;;;;6.24;84.82;98967.22;4882167;27;71366;-75
2023/10/14 03:39:40;;;;;;;10.85;3.28;;;;;;;6.31;84.32;98964.09;5054821;28;20048;-72
2023/10/14 03:42:11;;;;;;;5.78;3.30;;;;;;;6.27;84.61;98972.31;5069268;28;20075;-70
2023/10/14 03:44:36;;;;;;;6.88;3.65;;;;;;;6.13;84.45;98974.06;5071761;28;20055;-69
2023/10/14 03:47:01;;;;;;;9.63;3.80;;;;;;;6.18;83.91;98964.03;5071646;28;20048;-72
2023/10/14 03:49:25;;;;;;;8.73;3.80;;;;;;;6.14;84.97;98961.69;5037472;28;20502;-70
2023/10/14 03:51:54;;;;;;;9.07;3.70;;;;;;;6.09;84.50;98963.78;5072269;28;20047;-71
2023/10/14 03:54:28;;;;;;;8.73;4.18;;;;;;;6.05;85.53;98983.44;5073051;28;20879;-73
2023/10/14 03:56:56;;;;;;;7.80;3.72;;;;;;;6.06;86.12;98959.53;5072042;28;20052;-75
2023/10/14 03:59:22;;;;;;;7.55;3.60;;;;;;;6.09;85.45;98959.34;5071217;28;20070;-74
2023/10/14 04:01:54;;;;;;;12.45;3.90;;;;;;;6.10;85.78;98954.88;5054393;28;20044;-75
2023/10/14 04:04:21;;;;;;;7.40;3.30;;;;;;;6.12;85.71;99022.63;5072413;28;20050;-75
2023/10/14 04:12:08;;;;;;;14.50;4.90;;;;;;;6.25;85.01;98940.66;5072807;28;20051;-74
2023/10/14 04:14:37;;;;;;;9.77;3.30;;;;;;;6.15;85.52;98927.19;5071673;28;20046;-76
2023/10/14 04:17:19;;;;;;;9.68;3.33;;;;;;;6.22;85.47;98926.75;5071601;28;20585;-75
2023/10/14 04:19:46;;;;;;;7.20;3.22;;;;;;;6.26;85.07;98923.84;5053940;28;20512;-74
2023/10/14 04:28:17;;;;;;;9.30;4.63;;;;;;;6.32;84.92;98912.81;5071007;28;20039;-76
2023/10/14 04:35:25;;;;;;;5.75;3.35;;;;;;;6.33;84.80;98897.78;5061780;28;20494;-74
2023/10/14 04:37:54;;;;;;;6.13;3.25;;;;;;;6.40;85.21;98891.16;5057816;28;20124;-74
2023/10/14 04:45:55;;;;;;;6.65;2.88;;;;;;;6.56;83.62;98886.53;5057332;28;20043;-72
2023/10/14 04:48:27;;;;;;;11.23;4.05;;;;;;;6.45;83.88;98881.09;5059211;28;20044;-73
2023/10/14 04:50:57;;;;;;;11.68;3.60;;;;;;;6.52;84.02;98871.81;5058516;28;20051;-72
2023/10/14 04:53:26;;;;;;;10.38;4.00;;;;;;;6.65;83.33;98871.84;5058277;28;20089;-71
2023/10/14 04:55:55;;;;;;;10.25;3.70;;;;;;;6.59;83.69;98862.50;5058245;28;20039;-71
2023/10/14 04:58:25;;;;;;;8.93;3.85;;;;;;;6.73;83.05;98864.22;5056983;28;20040;-72
2023/10/14 05:00:52;;;;;;;6.78;2.30;;;;;;;6.79;82.77;98856.69;5024339;28;20051;-72
2023/10/14 05:03:20;;;;;;;6.05;3.42;;;;;;;6.78;82.40;98860.28;5058822;28;20046;-71
2023/10/14 05:05:48;;;;;;;5.60;2.90;;;;;;;6.74;81.96;98853.50;5057299;28;20048;-74
2023/10/14 05:08:16;;;;;;;8.45;3.67;;;;;;;6.77;82.62;98855.13;5039796;28;20046;-73
2023/10/14 05:10:43;;;;;;;9.50;4.00;;;;;;;6.71;82.28;98844.91;5045033;28;20165;-71
2023/10/14 05:13:13;;;;;;;11.13;4.47;;;;;;;6.82;82.72;98848.53;5040017;28;20398;-74
2023/10/14 05:15:42;;;;;;;8.70;3.75;;;;;;;7.00;82.14;98840.28;5038018;28;20128;-73
2023/10/14 05:18:17;;;;;;;12.77;4.25;;;;;;;6.86;81.60;98860.63;5038854;28;20204;-74
2023/10/14 05:20:56;;;;;;;8.43;3.83;;;;;;;6.92;82.21;98828.38;5038302;28;20052;-73
2023/10/14 05:23:24;;;;;;;9.15;3.60;;;;;;;6.92;81.36;98817.78;5035686;28;20048;-74
2023/10/14 05:25:49;;;;;;;11.85;4.25;;;;;;;7.02;80.84;98822.44;5053322;28;20152;-72
2023/10/14 05:28:16;;;;;;;11.70;4.68;;;;;;;7.07;81.15;98829.13;5055706;28;20060;-72
2023/10/14 05:30:46;;;;;;;12.25;3.47;;;;;;;7.08;81.22;98819.38;5055846;28;20051;-73
2023/10/14 05:33:13;;;;;;;13.48;4.18;;;;;;;7.22;80.94;98808.66;5057006;28;20040;-75
2023/10/14 05:35:42;;;;;;;9.38;3.92;;;;;;;7.31;80.42;98781.47;5058111;28;20407;-75
2023/10/14 05:38:10;;;;;;;11.77;3.97;;;;;;;7.44;80.55;98819.44;5057952;28;20501;-74
2023/10/14 05:40:34;;;;;;;8.18;3.38;;;;;;;7.51;79.68;98810.06;5057599;28;20086;-75
2023/10/14 05:42:59;;;;;;;10.35;4.13;;;;;;;7.56;79.18;98796.47;5058501;28;20060;-76
2023/10/14 05:45:26;;;;;;;8.35;3.47;;;;;;;7.65;79.19;98785.19;5061034;28;20044;-75
2023/10/14 05:47:51;;;;;;;12.32;4.30;;;;;;;7.49;79.20;98792.56;5058666;28;20040;-75
2023/10/14 05:50:16;;;;;;;10.80;4.10;;;;;;;7.42;79.07;98799.28;5058400;28;20051;-74
2023/10/14 05:52:43;;;;;;;13.27;4.10;;;;;;;7.64;79.29;98783.50;5057768;28;20051;-75
2023/10/14 05:55:09;;;;;;;5.60;2.75;;;;;;;7.69;78.88;98753.97;5057197;28;20044;-77
2023/10/14 05:57:39;;;;;;;4.95;2.78;;;;;;;7.71;79.24;98771.47;5058157;28;20044;-75
2023/10/14 06:00:20;;;;;;;7.55;3.20;;;;;;;7.64;79.22;98779.03;5041316;28;20040;-74
2023/10/14 06:02:45;;;;;;;10.98;3.65;;;;;;;7.71;79.55;98767.97;5037267;28;20044;-76
2023/10/14 06:05:09;;;;;;;9.35;4.32;;;;;;;7.71;79.19;98773.28;5051785;28;20070;-75
2023/10/14 06:07:34;;;;;;;10.50;4.85;;;;;;;7.76;79.11;98766.69;5058108;28;20036;-76
2023/10/14 06:09:58;;;;;;;9.02;3.67;;;;;;;7.78;79.88;98763.91;5056648;28;20048;-75
2023/10/14 06:12:23;;;;;;;17.92;3.60;;;;;;;7.59;80.47;98764.41;5056675;28;20588;-75
2023/10/14 06:14:48;;;;;;;14.57;4.32;;;;;;;7.74;80.47;98715.53;5056599;28;20572;-76
2023/10/14 06:17:14;;;;;;;12.70;4.63;;;;;;;7.60;81.21;98745.72;5055849;28;20039;-78
2023/10/14 06:19:39;;;;;;;13.75;4.18;;;;;;;7.46;82.12;98727.31;5056706;28;20040;-79
2023/10/14 06:22:03;;;;;;;9.57;3.65;;;;;;;7.52;82.67;98731.34;5056124;28;20100;-76
2023/10/14 06:24:33;;;;;;;11.27;4.03;;;;;;;7.38;83.68;98712.94;5057228;28;20039;-73
2023/10/14 06:27:08;;;;;;;10.93;4.70;;;;;;;7.28;85.22;98728.69;5056293;28;20036;-73
2023/10/14 06:29:37;;;;;;;10.30;3.88;;;;;;;7.38;85.96;98728.84;5055222;28;20115;-72
2023/10/14 06:32:03;;;;;;;8.43;4.45;;;;;;;7.43;85.79;98726.72;5022091;28;20047;-73
2023/10/14 06:34:31;;;;;;;11.68;4.68;;;;;;;7.39;87.47;98726.09;5056787;28;20044;-72
2023/10/14 06:36:56;;;;;;;9.35;3.92;;;;;;;7.50;87.79;98707.59;5055445;28;20111;-72
2023/10/14 06:39:26;;;;;;;12.60;4.95;;;;;;;7.50;87.36;98718.19;5057597;28;20185;-74
2023/10/14 06:41:52;;;;;;;11.93;5.00;;;;;;;7.46;87.58;98700.81;5068753;28;20044;-77
2023/10/14 06:44:17;;;;;;;10.50;4.25;;;;;;;7.50;88.45;98702.28;5080741;28;20038;-74
2023/10/14 06:46:44;;;;;;;10.68;4.45;;;;;;;7.50;88.11;98702.28;5074452;28;20056;-73
2023/10/14 06:49:13;;;;;;;20.17;5.47;;;;;;;7.52;88.07;98687.09;5052017;28;20040;-73
2023/10/14 06:51:38;;;;;;;18.95;4.90;;;;;;;7.46;89.03;98694.66;5081433;28;20032;-76
2023/10/14 06:54:03;;;;;;;14.82;5.43;;;;;;;7.54;88.63;98665.78;5073430;28;20066;-77
2023/10/14 06:56:27;;;;;;;10.02;4.07;;;;;;;7.58;89.47;98646.84;5044504;28;20047;-76
2023/10/14 06:58:52;;;;;;;12.18;3.60;;;;;;;7.71;89.79;98688.38;5060374;28;20461;-76
2023/10/14 07:01:17;;;;;;;14.52;4.15;;;;;;;7.69;89.53;98653.16;5059390;28;20051;-78
2023/10/14 07:03:42;;;;;;;11.60;5.00;;;;;;;7.61;90.92;98646.63;5040789;28;20131;-77
2023/10/14 07:06:09;;;;;;;12.05;4.47;;;;;;;7.78;90.57;98679.00;5059054;28;20053;-78
2023/10/14 07:08:36;;;;;;;4.18;2.10;;;;;;;8.08;89.13;98657.25;5057071;28;20043;-77
2023/10/14 07:11:00;;;;;;;10.15;4.55;;;;;;;8.04;88.72;98638.03;5062800;28;20044;-79
2023/10/14 07:13:26;;;;;;;18.83;4.55;;;;;;;8.03;88.03;98636.34;5059851;28;20066;-78
2023/10/14 07:15:51;;;;;;;13.60;4.80;;;;;;;8.17;87.29;98622.88;5057980;28;20415;-77
2023/10/14 07:18:23;;;;;;;11.55;3.92;;;;;;;8.11;87.06;98607.44;5021112;28;20051;-77
2023/10/14 07:21:00;;;;;;;8.10;4.20;;;;;;;8.07;88.26;98610.44;5052060;28;20101;-80
2023/10/14 07:23:36;;;;;;;13.73;4.38;;;;;;;7.97;89.37;98615.59;5039209;28;20067;-77
2023/10/14 07:26:09;;;;;;;12.73;4.88;;;;;;;8.01;89.09;98607.28;5039160;28;20032;-75
2023/10/14 07:28:35;;;;;;;15.23;4.78;;;;;;;7.96;90.09;98598.00;5057183;28;20067;-77
2023/10/14 07:31:00;;;;;;;12.07;5.68;;;;;;;7.91;90.37;98606.28;5022206;28;20035;-76
2023/10/14 07:33:24;;;;;;;12.18;5.07;;;;;;;7.85;91.09;98601.47;5054950;28;20097;-76
2023/10/14 07:35:49;;;;;;;15.18;5.28;;;;;;;7.94;91.55;98600.75;5056165;28;20093;-76
2023/10/14 07:38:14;;;;;;;7.32;3.55;;;;;;;7.95;91.97;98591.84;5055318;28;20076;-71
2023/10/14 07:40:39;;;;;;;13.52;4.57;;;;;;;7.92;92.40;98591.22;5053464;28;20051;-70
2023/10/14 07:43:07;;;;;;;13.30;4.55;;;;;;;8.05;92.79;98581.34;5053169;28;20071;-72
2023/10/14 07:45:35;;;;;;;9.25;4.47;;;;;;;8.12;91.91;98576.41;5053698;28;20071;-71
2023/10/14 07:48:11;;;;;;;20.70;5.43;;;;;;;8.06;91.81;98598.97;5053370;28;20458;-71
2023/10/14 07:50:37;;;;;;;9.52;4.57;;;;;;;8.24;91.80;98576.28;5053507;28;20065;-71
2023/10/14 07:53:07;;;;;;;13.25;4.22;;;;;;;8.10;91.05;98562.41;5053562;28;20047;-70
2023/10/14 07:55:35;;;;;;;13.73;5.28;;;;;;;8.04;91.61;98574.34;5053390;28;20040;-75
2023/10/14 07:58:00;;;;;;;16.58;4.60;;;;;;;8.05;92.69;98575.19;5053729;28;20055;-73
2023/10/14 08:00:36;;;;;;;10.60;3.70;;;;;;;8.06;93.16;98545.03;5051492;28;20048;-73
2023/10/14 08:03:06;;;;;;;11.40;4.53;;;;;;;8.06;92.92;98550.34;5017233;28;20070;-72
2023/10/14 08:05:33;;;;;;;11.55;5.53;;;;;;;7.79;94.55;98543.56;5033838;28;20071;-72
2023/10/14 08:07:59;;;;;;;16.23;5.05;;;;;;;7.85;95.27;98531.63;5034845;28;20072;-72
2023/10/14 08:10:24;;;;;;;14.02;4.43;;;;;;;7.67;96.51;98522.47;5037706;28;20116;-72
2023/10/14 08:12:52;;;;;;;9.60;4.32;;;;;;;7.67;97.43;98523.31;5021765;28;20123;-73
2023/10/14 08:15:20;;;;;;;17.63;5.68;;;;;;;7.44;100.00;98526.88;5057650;28;20413;-71
2023/10/14 08:17:46;;;;;;;16.92;5.68;;;;;;;7.51;100.00;98506.88;5058340;28;20043;-71
2023/10/14 08:20:14;;;;;;;9.68;3.67;;;;;;;7.62;100.00;98515.69;5040497;28;20043;-71
2023/10/14 08:22:47;;;;;;;9.77;4.50;;;;;;;7.71;100.00;98513.28;5059291;28;20052;-70
2023/10/14 08:25:12;;;;;;;13.32;5.50;;;;;;;7.58;100.00;98508.09;5057414;28;20055;-72
2023/10/14 08:27:37;;;;;;;10.00;4.78;;;;;;;7.49;100.00;98499.03;5058370;28;20089;-72
2023/10/14 08:30:13;;;;;;;10.38;5.53;;;;;;;7.56;100.00;98500.25;5059330;28;20506;-71
2023/10/14 08:32:41;;;;;;;9.35;4.40;;;;;;;7.65;100.00;98499.56;5040464;28;20086;-70
2023/10/14 08:35:19;;;;;;;10.40;4.80;;;;;;;7.67;100.00;98509.22;5058119;28;20043;-71
2023/10/14 08:37:47;;;;;;;14.30;4.65;;;;;;;7.78;100.00;98525.13;5019710;28;20040;-70
2023/10/14 08:40:16;;;;;;;12.75;5.07;;;;;;;7.85;100.00;98474.13;5036444;28;20127;-70
2023/10/14 08:42:41;;;;;;;9.85;4.40;;;;;;;7.83;100.00;98465.44;5037588;28;20101;-69
2023/10/14 08:45:10;;;;;;;12.98;5.50;;;;;;;7.78;100.00;98451.69;5019450;28;20384;-71
2023/10/14 08:47:35;;;;;;;17.77;4.80;;;;;;;7.83;100.00;98462.78;5052925;28;20028;-68
2023/10/14 08:50:01;;;;;;;13.40;5.70;;;;;;;7.85;100.00;98457.34;5037193;28;20052;-70
2023/10/14 08:52:29;;;;;;;10.48;6.25;;;;;;;7.99;100.00;98457.09;5043323;28;20039;-69
2023/10/14 08:54:55;;;;;;;9.15;4.53;;;;;;;8.00;100.00;98472.06;5056466;28;20044;-69
2023/10/14 08:57:22;;;;;;;13.57;5.63;;;;;;;8.13;100.00;98450.66;5060000;28;20097;-71
2023/10/14 08:59:46;;;;;;;11.15;6.50;;;;;;;8.20;100.00;98447.41;5060090;28;20103;-74
2023/10/14 09:02:12;;;;;;;10.18;5.72;;;;;;;8.29;100.00;98454.63;5061153;28;20473;-73
2023/10/14 09:04:39;;;;;;;12.32;5.90;;;;;;;8.34;100.00;98444.53;5040085;28;20131;-74
2023/10/14 09:07:03;;;;;;;13.20;5.18;;;;;;;8.48;100.00;98450.50;5056758;28;20074;-72
2023/10/14 09:09:31;;;;;;;12.10;5.40;;;;;;;8.63;100.00;98443.94;5056790;28;20067;-73
2023/10/14 09:12:07;;;;;;;13.43;6.00;;;;;;;8.65;100.00;98420.75;5056101;28;20054;-67
2023/10/14 09:14:33;;;;;;;15.48;5.90;;;;;;;8.65;100.00;98434.03;5057147;28;20054;-68
2023/10/14 09:16:58;;;;;;;12.20;5.47;;;;;;;8.82;100.00;98433.44;5056338;28;20043;-69
2023/10/14 09:19:23;;;;;;;10.25;5.38;;;;;;;9.03;100.00;98430.81;5038741;28;20127;-73
2023/10/14 09:21:48;;;;;;;12.57;6.00;;;;;;;9.25;100.00;98412.09;5039866;28;20044;-73
2023/10/14 09:24:13;;;;;;;9.50;5.55;;;;;;;9.38;100.00;98420.66;5045450;28;20059;-72
2023/10/14 09:26:44;;;;;;;13.20;6.07;;;;;;;9.65;100.00;98417.44;5049749;28;20040;-73
2023/10/14 09:29:09;;;;;;;8.27;5.20;;;;;;;9.64;100.00;98404.28;5040157;28;20125;-73
2023/10/14 09:31:37;;;;;;;13.27;5.85;;;;;;;9.75;100.00;98402.38;5037764;28;20182;-74
2023/10/14 09:34:02;;;;;;;14.15;5.22;;;;;;;9.93;99.37;98389.22;5053775;28;20426;-75
2023/10/14 09:36:27;;;;;;;12.32;4.68;;;;;;;10.18;97.56;98387.94;5020328;28;20450;-76
2023/10/14 09:38:52;;;;;;;15.65;5.68;;;;;;;10.34;95.76;98393.56;5044789;28;20039;-76
2023/10/14 09:41:17;;;;;;;12.85;4.88;;;;;;;10.67;92.39;98376.31;5056959;28;20153;-74
2023/10/14 09:43:51;;;;;;;13.27;5.75;;;;;;;10.82;90.69;98387.41;5040024;28;20386;-74
2023/10/14 09:46:20;;;;;;;10.52;4.65;;;;;;;10.92;88.71;98372.25;5056070;28;20122;-74
2023/10/14 09:48:45;;;;;;;10.00;4.82;;;;;;;11.07;87.29;98388.63;5037163;28;20506;-75
2023/10/14 09:51:12;;;;;;;9.02;4.47;;;;;;;11.10;85.83;98369.66;5057854;28;20071;-75
2023/10/14 09:53:37;;;;;;;9.80;4.43;;;;;;;11.13;85.91;98354.22;5053669;28;20044;-75
2023/10/14 09:56:07;;;;;;;8.60;4.05;;;;;;;11.46;84.74;98354.69;5053741;28;20040;-76
2023/10/14 09:58:36;;;;;;;9.63;4.43;;;;;;;11.87;83.58;98346.22;5057907;28;20466;-75
2023/10/14 10:01:05;;;;;;;10.88;4.85;;;;;;;12.02;81.29;98351.06;5057737;28;20048;-74
2023/10/14 10:03:44;;;;;;;9.82;4.63;;;;;;;11.90;80.12;98372.63;5057598;28;20055;-74
2023/10/14 10:06:15;;;;;;;8.52;4.97;;;;;;;12.03;80.17;98358.91;5059064;28;20066;-77
2023/10/14 10:08:58;;;;;;;7.50;4.28;;;;;;;11.78;80.09;98355.13;5054900;28;20048;-76
2023/10/14 10:11:24;;;;;;;11.10;4.38;;;;;;;11.53;81.24;98377.13;5059313;28;20047;-74
2023/10/14 10:13:51;;;;;;;9.65;4.95;;;;;;;11.57;81.53;98384.69;5037432;28;20032;-74
2023/10/14 10:16:20;;;;;;;14.98;5.18;;;;;;;11.50;82.32;98372.09;5053529;28;20082;-76
2023/10/14 10:18:51;;;;;;;9.18;4.00;;;;;;;11.56;82.21;98356.31;5054591;28;20043;-78
2023/10/14 10:21:20;;;;;;;18.35;4.80;;;;;;;11.64;81.62;98372.44;5038598;28;20046;-76
2023/10/14 10:23:49;;;;;;;6.95;4.32;;;;;;;11.67;81.47;98373.97;5035541;28;20072;-75
2023/10/14 10:26:17;;;;;;;9.23;4.63;;;;;;;11.69;80.92;98388.00;5050752;28;20044;-75
2023/10/14 10:28:44;;;;;;;8.63;4.53;;;;;;;11.75;81.22;98370.56;5056471;28;20040;-72
2023/10/14 10:31:14;;;;;;;8.90;4.97;;;;;;;11.87;81.62;98342.69;5055444;28;20047;-71
2023/10/14 10:33:57;;;;;;;11.73;4.95;;;;;;;11.90;80.96;98375.28;5055516;28;20111;-72
2023/10/14 10:36:25;;;;;;;10.32;5.55;;;;;;;11.77;80.79;98352.59;5054186;28;20043;-72
2023/10/14 10:38:53;;;;;;;7.85;4.88;;;;;;;11.76;81.49;98359.75;5051355;28;20115;-70
2023/10/14 10:41:25;;;;;;;9.50;4.82;;;;;;;11.69;82.05;98360.47;5053116;28;20044;-74
2023/10/14 10:43:52;;;;;;;12.38;5.43;;;;;;;11.75;81.82;98347.41;5020362;28;20040;-71
2023/10/14 10:46:37;;;;;;;10.52;4.97;;;;;;;11.77;82.10;98348.09;5036959;28;20410;-72
2023/10/14 10:49:01;;;;;;;10.90;5.43;;;;;;;11.71;82.78;98364.69;5065956;28;20510;-70
2023/10/14 10:51:29;;;;;;;12.85;4.70;;;;;;;11.81;82.32;98386.88;5053849;28;20500;-72
2023/10/14 10:53:57;;;;;;;13.27;5.97;;;;;;;11.84;81.71;98367.03;5055178;28;20498;-71
2023/10/14 10:56:22;;;;;;;7.75;4.57;;;;;;;11.89;81.59;98351.41;5051115;28;20052;-71
2023/10/14 10:58:46;;;;;;;10.50;5.05;;;;;;;11.86;82.32;98336.50;5033893;28;20043;-71
2023/10/14 11:01:12;;;;;;;10.52;4.90;;;;;;;11.91;82.62;98355.63;5052007;28;20048;-71
2023/10/14 11:03:43;;;;;;;4.43;3.63;;;;;;;12.02;82.77;98361.72;5050901;28;20040;-71
2023/10/14 11:06:13;;;;;;;8.43;4.15;;;;;;;12.16;81.85;98347.88;5051492;28;20067;-71
2023/10/14 11:08:38;;;;;;;9.48;4.45;;;;;;;12.19;81.78;98348.38;5036949;28;20036;-73
2023/10/14 11:11:03;;;;;;;9.50;5.00;;;;;;;12.33;80.99;98355.88;5053534;28;20040;-72
2023/10/14 11:13:28;;;;;;;12.38;5.70;;;;;;;12.48;80.66;98331.31;5055552;28;20035;-73
2023/10/14 11:15:52;;;;;;;10.75;4.22;;;;;;;12.61;79.73;98342.47;5038758;28;20047;-75
2023/10/14 11:18:18;;;;;;;12.90;4.22;;;;;;;12.77;79.40;98347.91;5039039;28;20032;-73
2023/10/14 11:20:45;;;;;;;9.13;4.47;;;;;;;12.64;79.13;98342.16;5055861;28;20047;-72
2023/10/14 11:23:11;;;;;;;11.48;6.07;;;;;;;12.77;78.94;98347.91;5055837;28;20052;-73
2023/10/14 11:25:40;;;;;;;7.97;4.47;;;;;;;12.90;78.60;98352.88;5054616;28;20136;-72
2023/10/14 11:28:06;;;;;;;11.43;4.55;;;;;;;12.97;77.65;98344.09;5037918;28;20513;-73
2023/10/14 11:30:31;;;;;;;7.78;4.10;;;;;;;13.00;77.46;98353.63;5054200;28;20097;-74
2023/10/14 11:32:58;;;;;;;10.20;4.95;;;;;;;12.97;77.57;98370.00;5056977;28;20028;-77
2023/10/14 11:35:29;;;;;;;8.68;5.13;;;;;;;12.87;77.92;98332.63;5045522;28;20139;-77
2023/10/14 11:38:02;;;;;;;10.50;5.13;;;;;;;12.80;78.07;98325.38;5051610;28;20522;-79
2023/10/14 11:40:37;;;;;;;8.13;4.68;;;;;;;12.91;78.20;98322.47;5037391;28;20045;-78
2023/10/14 11:43:04;;;;;;;7.20;4.18;;;;;;;12.80;77.67;98320.03;5039274;28;20047;-77
2023/10/14 11:45:30;;;;;;;10.88;5.03;;;;;;;12.78;78.26;98330.88;4929604;28;81264;-76
2023/10/14 11:47:54;;;;;;;9.93;4.78;;;;;;;12.82;78.62;98307.34;5055863;28;20040;-77
2023/10/14 11:50:20;;;;;;;7.88;4.80;;;;;;;12.56;79.11;98318.84;5039493;28;20502;-79
2023/10/14 11:52:53;;;;;;;8.55;4.43;;;;;;;12.59;79.81;98331.91;5060016;28;20039;-78
2023/10/14 11:55:19;;;;;;;13.80;5.45;;;;;;;12.60;80.12;98320.22;5056765;28;20142;-77
2023/10/14 11:57:45;;;;;;;14.63;5.50;;;;;;;12.49;80.58;98311.59;5059833;28;20040;-79
2023/10/14 12:00:12;;;;;;;8.75;4.68;;;;;;;12.53;80.99;98310.28;5057289;28;20051;-80
2023/10/14 12:02:37;;;;;;;10.70;5.20;;;;;;;12.50;81.63;98303.44;5059946;28;20065;-78
2023/10/14 12:05:03;;;;;;;10.80;4.90;;;;;;;12.62;81.28;98328.94;5025571;28;20032;-78
2023/10/14 12:07:32;;;;;;;8.02;4.13;;;;;;;12.64;80.59;98310.88;5060141;28;20131;-78
2023/10/14 12:09:59;;;;;;;19.50;6.32;;;;;;;12.62;80.67;98301.38;5059013;28;20405;-78
2023/10/14 12:12:24;;;;;;;9.50;4.88;;;;;;;12.67;80.64;98315.94;5064258;28;20050;-82
2023/10/14 12:14:48;;;;;;;12.25;5.85;;;;;;;12.74;80.85;98302.78;5061987;28;20063;-81
2023/10/14 12:17:15;;;;;;;11.27;5.68;;;;;;;12.86;80.52;98290.00;5060781;28;20032;-81
2023/10/14 12:19:40;;;;;;;12.60;5.68;;;;;;;12.88;79.96;98288.84;5039034;28;20043;-79
2023/10/14 12:22:05;;;;;;;8.65;4.90;;;;;;;12.97;80.09;98295.94;5055491;28;20552;-71
2023/10/14 12:24:32;;;;;;;8.75;5.03;;;;;;;13.10;80.08;98285.63;5050679;28;20418;-77
2023/10/14 12:26:56;;;;;;;7.78;5.40;;;;;;;13.24;79.02;98319.03;5041379;28;20032;-78